Time;durP1;ratioP1;P1;durP2;ratioP2;P2;SDS_P1;SDS_P2;PMS_P1;PMS_P2;Temp;Humidity;BMP_temperature;BMP_pressure;BME280_temperature;BME280_humidity;BME280_pressure;Samples;Min_cycle;Max_cycle;Signal;HPM_P1;HPM_P2
2021/08/25 00:00:58;;;;;;;1.40;1.30;;;;;;;14.23;71.11;99677.16;5130437;27;41981;-83
2021/08/25 00:03:26;;;;;;;1.80;1.70;;;;;;;14.23;71.13;99686.00;5128120;27;43669;-82
2021/08/25 00:05:54;;;;;;;2.37;1.77;;;;;;;14.30;71.97;99691.81;5130032;27;42641;-82
2021/08/25 00:08:21;;;;;;;1.03;0.93;;;;;;;14.17;71.80;99672.22;5130745;27;40739;-79
2021/08/25 00:10:49;;;;;;;1.60;1.50;;;;;;;14.17;72.51;99672.22;5095977;28;41845;-86
2021/08/25 00:13:18;;;;;;;1.33;1.23;;;;;;;14.11;72.69;99669.94;5122873;27;43179;-83
2021/08/25 00:15:47;;;;;;;1.17;1.13;;;;;;;14.20;72.49;99680.03;5112074;27;42481;-83
2021/08/25 00:18:15;;;;;;;1.53;1.43;;;;;;;14.19;71.95;99679.19;5123365;27;39678;-82
2021/08/25 00:20:42;;;;;;;1.60;1.40;;;;;;;14.11;72.55;99667.28;5092886;28;40993;-83
2021/08/25 00:23:10;;;;;;;1.27;1.17;;;;;;;14.07;72.65;99663.97;5109753;27;42133;-87
2021/08/25 00:25:38;;;;;;;1.57;1.30;;;;;;;14.06;72.98;99656.09;5111413;28;42538;-83
2021/08/25 00:28:06;;;;;;;2.17;1.30;;;;;;;14.01;73.18;99649.22;5110166;28;40980;-83
2021/08/25 00:30:34;;;;;;;1.30;1.20;;;;;;;14.05;73.47;99659.69;5111103;28;40747;-81
2021/08/25 00:33:03;;;;;;;1.70;1.60;;;;;;;14.08;73.18;99659.50;5127203;27;43094;-84
2021/08/25 00:35:31;;;;;;;1.77;1.53;;;;;;;14.03;73.61;99652.66;5130669;27;42028;-84
2021/08/25 00:37:59;;;;;;;1.57;1.40;;;;;;;14.00;73.66;99647.53;5131005;27;40450;-87
2021/08/25 00:40:26;;;;;;;1.40;1.30;;;;;;;13.82;73.37;99616.75;5129773;27;41929;-86
2021/08/25 00:42:54;;;;;;;2.80;1.60;;;;;;;13.98;73.80;99652.09;5093212;28;41688;-82
2021/08/25 00:45:21;;;;;;;1.50;1.40;;;;;;;14.06;73.55;99664.94;5109435;28;43265;-80
2021/08/25 00:47:50;;;;;;;1.40;1.30;;;;;;;14.03;73.04;99663.31;5118037;27;39770;-84
2021/08/25 00:50:19;;;;;;;2.17;1.63;;;;;;;14.01;73.18;99664.34;5093170;28;42110;-86
2021/08/25 00:52:47;;;;;;;1.30;1.20;;;;;;;13.94;72.83;99660.38;5108667;28;42891;-83
2021/08/25 00:55:15;;;;;;;1.40;1.17;;;;;;;13.83;72.65;99646.91;5108889;28;42250;-85
2021/08/25 00:57:43;;;;;;;1.97;1.40;;;;;;;13.88;73.60;99653.63;5109150;27;38988;-82
2021/08/25 01:00:12;;;;;;;2.23;1.97;;;;;;;13.85;73.10;99653.81;5112384;27;41588;-89
2021/08/25 01:02:48;;;;;;;1.87;1.40;;;;;;;13.73;73.99;99638.59;5113056;27;41605;-87
2021/08/25 01:05:16;;;;;;;1.90;1.50;;;;;;;13.73;73.95;99648.41;5130004;27;41433;-84
2021/08/25 01:07:47;;;;;;;1.80;1.67;;;;;;;13.80;73.73;99665.72;5098781;28;39912;-86
2021/08/25 01:10:23;;;;;;;1.60;1.50;;;;;;;13.76;74.06;99649.06;5109349;28;42013;-82
2021/08/25 01:12:51;;;;;;;1.50;1.40;;;;;;;13.76;74.55;99648.22;5109286;28;42930;-85
2021/08/25 01:15:18;;;;;;;1.50;1.40;;;;;;;13.76;74.61;99648.22;5114725;27;42828;-83
2021/08/25 01:17:47;;;;;;;5.63;2.07;;;;;;;13.71;74.76;99645.88;5134013;27;40049;-88
2021/08/25 01:20:15;;;;;;;1.47;1.17;;;;;;;13.72;74.29;99655.56;5115627;27;41077;-83
2021/08/25 01:22:45;;;;;;;1.37;1.27;;;;;;;13.71;74.24;99651.19;5116248;27;41904;-84
2021/08/25 01:25:14;;;;;;;1.37;1.27;;;;;;;13.57;74.36;99635.22;5133574;27;42710;-86
2021/08/25 01:27:48;;;;;;;1.30;1.20;;;;;;;13.68;74.21;99655.84;5132463;27;38812;-84
2021/08/25 01:30:19;;;;;;;1.57;1.40;;;;;;;13.56;74.03;99641.50;5134045;27;41514;-86
2021/08/25 01:32:46;;;;;;;1.40;1.07;;;;;;;13.62;74.25;99646.41;5114950;27;43180;-85
2021/08/25 01:35:14;;;;;;;1.93;1.50;;;;;;;13.60;74.02;99646.50;5097460;28;41555;-81
2021/08/25 01:37:42;;;;;;;1.47;1.23;;;;;;;13.52;73.52;99632.84;5113642;28;40105;-85
2021/08/25 01:40:10;;;;;;;1.20;1.10;;;;;;;13.51;73.70;99628.47;5101760;28;40762;-82
2021/08/25 01:42:38;;;;;;;1.10;1.10;;;;;;;13.41;73.75;99607.84;5115661;28;43020;-84
2021/08/25 01:45:07;;;;;;;1.17;1.10;;;;;;;13.49;73.38;99632.16;5107188;27;42527;-88
2021/08/25 01:47:36;;;;;;;1.27;1.13;;;;;;;13.48;73.79;99631.31;5134552;27;41045;-87
2021/08/25 01:50:05;;;;;;;1.50;1.40;;;;;;;13.35;73.45;99616.22;5132546;27;40809;-84
2021/08/25 01:52:32;;;;;;;0.97;0.97;;;;;;;13.33;73.43;99618.13;5112757;27;43236;-82
2021/08/25 01:55:00;;;;;;;0.90;0.90;;;;;;;13.39;73.46;99628.38;5111949;28;42302;-85
2021/08/25 01:57:27;;;;;;;1.27;1.10;;;;;;;13.36;73.22;99628.53;5111426;28;41262;-84
2021/08/25 01:59:55;;;;;;;1.20;1.10;;;;;;;13.33;72.92;99628.75;5119900;27;40847;-81
2021/08/25 02:02:22;;;;;;;1.57;1.47;;;;;;;13.27;73.30;99630.81;5115023;27;42345;-84
2021/08/25 02:04:51;;;;;;;0.77;0.77;;;;;;;13.16;73.26;99611.16;5115134;27;42091;-86
2021/08/25 02:07:20;;;;;;;1.37;1.27;;;;;;;13.22;73.11;99627.63;5131702;27;40077;-86
2021/08/25 02:09:47;;;;;;;1.20;1.10;;;;;;;13.15;72.77;99631.56;5112773;27;41112;-83
2021/08/25 02:12:15;;;;;;;0.97;0.97;;;;;;;13.14;72.48;99623.66;5094906;28;41989;-85
2021/08/25 02:14:42;;;;;;;1.00;1.00;;;;;;;13.08;72.66;99616.91;5112932;27;41274;-83
2021/08/25 02:17:10;;;;;;;0.93;0.93;;;;;;;13.00;72.42;99610.34;5132349;27;39783;-84
2021/08/25 02:19:38;;;;;;;0.90;0.80;;;;;;;12.93;72.44;99609.84;5115352;27;40825;-87
2021/08/25 02:22:07;;;;;;;1.10;1.00;;;;;;;12.89;72.53;99608.31;5132138;27;42873;-84
2021/08/25 02:24:34;;;;;;;0.80;0.77;;;;;;;12.95;72.44;99613.28;5118746;27;41317;-82
2021/08/25 02:27:02;;;;;;;1.00;1.00;;;;;;;12.92;72.40;99614.31;5093528;28;40196;-83
2021/08/25 02:29:29;;;;;;;0.90;0.90;;;;;;;12.89;72.28;99613.66;5111658;28;40756;-85
2021/08/25 02:31:57;;;;;;;0.70;0.70;;;;;;;12.80;72.25;99600.91;5131031;27;41647;-83
2021/08/25 02:34:24;;;;;;;0.77;0.77;;;;;;;12.83;72.42;99614.03;5114465;27;41221;-86
2021/08/25 02:36:52;;;;;;;0.90;0.90;;;;;;;12.75;72.55;99600.31;5133715;27;40901;-82
2021/08/25 02:39:20;;;;;;;1.07;1.07;;;;;;;12.79;72.68;99607.16;5106851;28;41024;-84
2021/08/25 02:41:48;;;;;;;0.87;0.80;;;;;;;12.76;72.72;99607.34;5093708;28;41760;-83
2021/08/25 02:44:16;;;;;;;0.97;0.73;;;;;;;12.74;72.66;99609.22;5109928;28;42605;-85
2021/08/25 02:46:44;;;;;;;0.70;0.70;;;;;;;12.58;72.17;99578.28;5094765;28;39695;-85
2021/08/25 02:49:11;;;;;;;0.90;0.77;;;;;;;12.64;72.71;99594.78;5096305;27;41569;-82
2021/08/25 02:51:40;;;;;;;0.93;0.93;;;;;;;12.58;72.53;99588.91;5132352;27;42970;-83
2021/08/25 02:54:08;;;;;;;1.27;1.17;;;;;;;12.62;72.37;99594.00;5114362;27;41153;-83
2021/08/25 02:56:37;;;;;;;0.80;0.70;;;;;;;12.44;72.37;99572.06;5131984;27;40036;-84
2021/08/25 02:59:05;;;;;;;0.70;0.70;;;;;;;12.61;72.48;99595.00;5118049;27;40890;-86
2021/08/25 03:01:33;;;;;;;1.43;1.33;;;;;;;12.53;72.72;99590.97;5110797;28;43510;-83
2021/08/25 03:04:00;;;;;;;1.57;1.10;;;;;;;12.47;72.77;99586.03;5110344;28;42660;-84
2021/08/25 03:06:28;;;;;;;1.23;1.13;;;;;;;12.51;72.96;99592.84;5089611;28;38858;-84
2021/08/25 03:08:55;;;;;;;1.03;0.90;;;;;;;12.50;72.91;99593.78;5073428;28;40953;-82
2021/08/25 03:11:23;;;;;;;0.60;0.60;;;;;;;12.42;72.78;99576.59;5089809;28;41789;-83
2021/08/25 03:13:52;;;;;;;0.80;0.80;;;;;;;12.47;72.93;99586.03;5087416;27;41289;-83
2021/08/25 03:16:19;;;;;;;0.73;0.60;;;;;;;12.46;72.94;99583.44;5114349;27;39077;-83
2021/08/25 03:18:47;;;;;;;0.97;0.97;;;;;;;12.32;73.01;99568.31;5132348;27;42540;-82
2021/08/25 03:21:15;;;;;;;1.33;0.70;;;;;;;12.43;72.76;99579.16;5100172;27;41766;-85
2021/08/25 03:23:42;;;;;;;1.23;1.00;;;;;;;12.42;72.99;99588.06;5110183;28;41489;-85
2021/08/25 03:26:10;;;;;;;0.67;0.63;;;;;;;12.29;72.99;99562.31;5093758;28;38929;-85
2021/08/25 03:28:37;;;;;;;0.80;0.80;;;;;;;12.37;73.23;99578.66;5095229;27;40665;-84
2021/08/25 03:31:07;;;;;;;1.03;1.00;;;;;;;12.28;72.87;99565.91;5114293;27;43038;-83
2021/08/25 03:33:34;;;;;;;1.13;1.07;;;;;;;12.18;73.10;99563.81;5130463;27;43276;-80
2021/08/25 03:36:02;;;;;;;0.70;0.70;;;;;;;12.29;73.25;99576.47;5114070;27;39687;-83
2021/08/25 03:38:30;;;;;;;0.80;0.73;;;;;;;12.28;73.38;99573.88;5131252;27;41975;-86
2021/08/25 03:40:57;;;;;;;1.47;1.37;;;;;;;12.25;73.18;99577.56;5111936;27;42800;-85
2021/08/25 03:43:25;;;;;;;1.23;1.10;;;;;;;12.20;73.57;99566.38;5111791;28;42440;-81
2021/08/25 03:45:53;;;;;;;1.20;1.20;;;;;;;12.21;73.43;99568.09;5111341;28;40706;-83
2021/08/25 03:48:22;;;;;;;1.13;1.10;;;;;;;12.20;73.57;99561.06;5094437;28;40537;-84
2021/08/25 03:50:49;;;;;;;0.97;0.67;;;;;;;12.19;73.75;99559.34;5110744;28;42768;-82
2021/08/25 03:53:17;;;;;;;0.80;0.80;;;;;;;12.20;73.52;99561.91;5092226;28;41659;-85
2021/08/25 03:55:44;;;;;;;1.07;0.97;;;;;;;12.19;73.49;99548.72;5122858;27;39237;-84
2021/08/25 03:58:12;;;;;;;0.70;0.67;;;;;;;12.17;73.87;99545.28;5112081;27;41682;-85
2021/08/25 04:00:39;;;;;;;0.80;0.80;;;;;;;12.17;73.61;99555.91;5113490;27;42125;-82
2021/08/25 04:03:07;;;;;;;1.10;1.00;;;;;;;12.15;73.52;99548.03;5112402;27;41178;-81
2021/08/25 04:05:38;;;;;;;0.60;0.60;;;;;;;11.99;73.70;99528.63;5130355;27;40117;-84
2021/08/25 04:08:06;;;;;;;1.00;0.90;;;;;;;12.07;73.21;99544.13;5131293;27;45697;-85
2021/08/25 04:10:34;;;;;;;0.83;0.70;;;;;;;11.98;73.58;99534.03;5114229;27;42314;-85
2021/08/25 04:13:01;;;;;;;1.50;1.20;;;;;;;12.06;73.58;99548.56;5112849;27;41182;-86
2021/08/25 04:15:28;;;;;;;1.00;1.00;;;;;;;12.06;73.38;99553.03;5095222;28;40289;-84
2021/08/25 04:17:56;;;;;;;0.70;0.70;;;;;;;11.96;73.55;99530.63;5092708;28;41887;-86
2021/08/25 04:20:24;;;;;;;1.20;0.70;;;;;;;12.02;73.46;99543.53;5111467;27;42704;-84
2021/08/25 04:22:53;;;;;;;0.43;0.43;;;;;;;11.91;73.73;99536.19;5129736;27;42239;-81
2021/08/25 04:25:20;;;;;;;1.43;0.67;;;;;;;11.95;73.54;99534.22;5113407;27;40279;-87
2021/08/25 04:27:48;;;;;;;0.70;0.67;;;;;;;11.99;73.51;99541.88;5130328;27;41355;-86
2021/08/25 04:30:16;;;;;;;0.73;0.50;;;;;;;11.90;73.71;99530.94;5129738;27;42295;-82
2021/08/25 04:32:43;;;;;;;1.47;0.57;;;;;;;11.99;73.61;99549.03;5113049;27;42064;-81
2021/08/25 04:35:11;;;;;;;0.80;0.80;;;;;;;11.94;73.92;99536.00;5112394;27;39023;-80
2021/08/25 04:37:39;;;;;;;0.80;0.80;;;;;;;11.71;73.70;99502.78;5097291;28;41081;-87
2021/08/25 04:40:10;;;;;;;1.20;0.90;;;;;;;12.02;73.83;99552.34;5109244;28;42984;-84
2021/08/25 04:42:38;;;;;;;0.63;0.63;;;;;;;11.99;73.61;99538.41;5092279;28;41456;-80
2021/08/25 04:45:06;;;;;;;0.63;0.50;;;;;;;12.04;73.48;99546.94;5092543;28;39406;-85
2021/08/25 04:47:34;;;;;;;1.67;1.30;;;;;;;12.06;73.87;99545.06;5108000;28;41553;-84
2021/08/25 04:50:01;;;;;;;1.27;1.03;;;;;;;12.08;73.84;99545.84;5091970;28;41918;-84
2021/08/25 04:52:29;;;;;;;0.57;0.57;;;;;;;12.09;73.51;99547.56;5122041;27;41150;-83
2021/08/25 04:54:56;;;;;;;1.37;0.83;;;;;;;12.00;73.82;99538.28;5115965;27;39002;-86
2021/08/25 04:57:25;;;;;;;1.00;0.70;;;;;;;12.14;73.79;99550.78;5126270;27;41724;-82
2021/08/25 04:59:53;;;;;;;1.77;0.83;;;;;;;12.17;73.48;99555.91;5115232;28;41811;-83
2021/08/25 05:02:20;;;;;;;1.20;0.90;;;;;;;12.21;73.46;99563.63;5122020;28;42854;-84
2021/08/25 05:04:48;;;;;;;0.80;0.80;;;;;;;12.18;73.54;99547.00;5115299;28;40607;-83
2021/08/25 05:07:16;;;;;;;1.63;0.90;;;;;;;12.33;73.20;99562.06;5095601;28;42031;-84
2021/08/25 05:09:43;;;;;;;0.77;0.77;;;;;;;12.40;73.12;99558.09;5079311;28;43261;-83
2021/08/25 05:12:11;;;;;;;1.20;1.10;;;;;;;12.49;73.30;99559.34;5095575;28;41477;-84
2021/08/25 05:14:40;;;;;;;0.80;0.80;;;;;;;12.52;73.18;99552.06;5114072;28;40790;-87
2021/08/25 05:17:07;;;;;;;0.87;0.80;;;;;;;12.58;72.94;99546.38;5111686;28;42289;-85
2021/08/25 05:19:35;;;;;;;0.80;0.80;;;;;;;12.76;72.80;99563.00;5111536;28;42894;-86
2021/08/25 05:22:03;;;;;;;1.27;1.00;;;;;;;12.65;72.90;99528.25;5094748;28;41509;-81
2021/08/25 05:24:37;;;;;;;1.07;0.97;;;;;;;12.86;73.04;99534.06;5112132;28;39422;-85
2021/08/25 05:27:05;;;;;;;0.90;0.90;;;;;;;13.07;72.99;99551.38;5112344;28;41957;-84
2021/08/25 05:29:32;;;;;;;1.53;1.17;;;;;;;13.20;73.14;99549.72;5131189;27;43124;-84
2021/08/25 05:32:01;;;;;;;1.50;1.00;;;;;;;13.38;72.76;99557.47;5137726;27;42473;-83
2021/08/25 05:34:29;;;;;;;1.03;0.90;;;;;;;13.57;72.37;99550.06;5137074;27;41542;-84
2021/08/25 05:36:56;;;;;;;1.13;1.03;;;;;;;13.77;71.92;99549.63;5156748;27;41753;-82
2021/08/25 05:39:24;;;;;;;1.40;1.07;;;;;;;13.94;72.11;99552.06;5140841;27;42946;-85
2021/08/25 05:41:51;;;;;;;1.07;0.90;;;;;;;13.96;71.80;99530.66;5147012;27;41376;-80
2021/08/25 05:44:19;;;;;;;0.87;0.80;;;;;;;14.21;71.90;99548.53;5106225;28;39847;-82
2021/08/25 05:46:46;;;;;;;1.07;0.97;;;;;;;14.31;71.66;99557.63;5105744;28;40595;-81
2021/08/25 05:49:15;;;;;;;1.00;0.97;;;;;;;14.33;71.87;99542.41;5122439;28;41866;-82
2021/08/25 05:51:56;;;;;;;0.97;0.97;;;;;;;14.50;71.33;99559.94;5122547;28;43582;-81
2021/08/25 05:54:24;;;;;;;0.97;0.97;;;;;;;14.64;71.25;99552.72;5121647;28;40101;-86
2021/08/25 05:56:52;;;;;;;1.10;0.87;;;;;;;14.73;70.87;99554.75;5112708;28;41902;-85
2021/08/25 05:59:19;;;;;;;1.53;1.10;;;;;;;14.80;70.91;99549.84;5110869;28;42051;-85
2021/08/25 06:01:47;;;;;;;1.13;0.97;;;;;;;14.85;71.02;99539.72;5093488;28;42720;-81
2021/08/25 06:04:16;;;;;;;1.90;1.13;;;;;;;14.93;71.18;99541.88;5110776;28;40999;-86
2021/08/25 06:06:43;;;;;;;0.70;0.70;;;;;;;15.17;70.42;99540.16;5112089;28;42112;-85
2021/08/25 06:09:11;;;;;;;2.13;0.90;;;;;;;15.50;69.98;99530.69;5111833;28;43067;-83
2021/08/25 06:11:39;;;;;;;0.73;0.60;;;;;;;15.63;69.33;99531.56;5112130;28;42474;-81
2021/08/25 06:14:07;;;;;;;1.40;1.30;;;;;;;15.72;69.05;99530.88;5109856;28;40159;-82
2021/08/25 06:16:35;;;;;;;0.80;0.80;;;;;;;15.90;69.35;99540.22;5098518;28;41854;-87
2021/08/25 06:19:03;;;;;;;0.90;0.90;;;;;;;15.93;69.17;99526.66;5109842;28;43150;-81
2021/08/25 06:21:50;;;;;;;1.57;1.47;;;;;;;16.06;68.68;99535.47;5112011;28;42829;-83
2021/08/25 06:24:18;;;;;;;1.37;0.93;;;;;;;16.12;68.85;99545.69;5092605;28;40463;-85
2021/08/25 06:26:46;;;;;;;1.57;1.07;;;;;;;16.28;68.46;99533.84;5093695;28;40948;-85
2021/08/25 06:29:14;;;;;;;1.60;1.17;;;;;;;16.65;67.26;99543.50;5111910;27;42924;-86
2021/08/25 06:31:41;;;;;;;1.00;0.90;;;;;;;16.95;66.61;99539.41;5110677;28;41405;-85
2021/08/25 06:34:09;;;;;;;0.80;0.80;;;;;;;17.09;66.49;99541.88;5093069;28;39007;-76
2021/08/25 06:36:37;;;;;;;1.20;1.10;;;;;;;17.11;66.36;99542.59;5101035;28;42814;-75
2021/08/25 06:39:07;;;;;;;1.10;0.93;;;;;;;17.20;66.68;99550.75;5109497;28;42719;-77
2021/08/25 06:41:34;;;;;;;1.03;0.93;;;;;;;17.24;66.61;99529.97;5109655;28;42417;-81
2021/08/25 06:44:02;;;;;;;1.53;1.43;;;;;;;17.40;65.87;99541.16;5109803;28;40472;-81
2021/08/25 06:46:31;;;;;;;1.50;0.97;;;;;;;17.56;65.39;99546.97;5089947;28;40834;-77
2021/08/25 06:48:58;;;;;;;1.10;1.03;;;;;;;17.61;65.51;99543.94;5091107;28;41834;-80
2021/08/25 06:51:26;;;;;;;0.90;0.90;;;;;;;17.67;64.84;99543.50;5090804;28;42434;-79
2021/08/25 06:53:54;;;;;;;1.20;1.10;;;;;;;17.75;64.72;99540.19;5092488;28;40897;-81
2021/08/25 06:56:23;;;;;;;1.20;1.10;;;;;;;17.81;64.98;99542.34;5108868;28;40783;-83
2021/08/25 06:58:51;;;;;;;2.27;1.10;;;;;;;17.80;65.06;99538.00;5092880;28;41797;-75
2021/08/25 07:01:18;;;;;;;1.53;0.93;;;;;;;18.02;64.64;99550.47;5107944;28;42397;-77
2021/08/25 07:03:46;;;;;;;0.93;0.93;;;;;;;18.16;64.80;99552.88;5108355;28;38737;-78
2021/08/25 07:06:14;;;;;;;1.40;1.00;;;;;;;18.25;64.80;99544.91;5109945;28;42125;-74
2021/08/25 07:08:52;;;;;;;1.33;1.20;;;;;;;18.40;64.27;99547.31;5109783;28;43878;-77
2021/08/25 07:11:19;;;;;;;1.23;1.07;;;;;;;18.59;63.85;99555.53;5111525;27;41111;-77
2021/08/25 07:13:48;;;;;;;1.00;1.00;;;;;;;18.83;62.50;99561.50;5098836;27;40099;-77
2021/08/25 07:16:16;;;;;;;0.70;0.70;;;;;;;18.97;62.20;99541.53;5093995;28;40453;-78
2021/08/25 07:18:44;;;;;;;1.53;1.43;;;;;;;19.23;61.75;99558.06;5091084;28;43262;-81
2021/08/25 07:21:12;;;;;;;0.97;0.87;;;;;;;19.35;61.25;99551.63;5106248;28;41188;-76
2021/08/25 07:23:40;;;;;;;1.40;1.30;;;;;;;19.47;61.26;99544.31;5108547;28;40269;-79
2021/08/25 07:26:07;;;;;;;1.60;1.17;;;;;;;19.75;60.94;99546.31;5106884;28;41487;-79
2021/08/25 07:28:43;;;;;;;1.10;0.97;;;;;;;19.86;60.25;99523.81;5091347;27;41794;-87
2021/08/25 07:31:13;;;;;;;2.13;1.73;;;;;;;20.29;59.45;99543.13;5089587;28;41290;-78
2021/08/25 07:33:41;;;;;;;1.40;1.30;;;;;;;20.44;58.78;99543.59;5090529;28;39135;-78
2021/08/25 07:36:09;;;;;;;1.67;1.17;;;;;;;20.56;58.77;99544.28;5110323;28;41921;-84
2021/08/25 07:38:37;;;;;;;1.53;1.17;;;;;;;20.67;59.15;99541.44;5092056;28;42044;-78
2021/08/25 07:41:05;;;;;;;1.97;1.00;;;;;;;20.78;57.34;99549.38;5108510;28;42090;-84
2021/08/25 07:43:33;;;;;;;1.33;1.10;;;;;;;20.82;56.58;99544.56;5091140;28;40116;-81
2021/08/25 07:46:01;;;;;;;1.10;1.00;;;;;;;21.00;58.14;99535.59;5109342;28;42377;-79
2021/08/25 07:48:31;;;;;;;1.17;1.00;;;;;;;21.10;58.44;99524.78;5108817;28;42798;-77
2021/08/25 07:50:58;;;;;;;1.20;1.03;;;;;;;21.47;57.03;99535.63;5113638;27;41240;-80
2021/08/25 07:53:26;;;;;;;1.00;0.90;;;;;;;21.80;57.05;99540.41;5146687;27;40723;-80
2021/08/25 07:55:54;;;;;;;1.30;1.20;;;;;;;22.17;55.88;99534.09;5113263;27;40698;-79
2021/08/25 07:58:22;;;;;;;1.00;1.00;;;;;;;22.85;54.08;99548.78;5128886;27;43939;-77
2021/08/25 08:00:50;;;;;;;1.67;1.10;;;;;;;23.95;49.05;99573.25;5109793;27;42597;-85
2021/08/25 08:03:17;;;;;;;1.37;1.20;;;;;;;25.73;47.07;99577.88;5090720;28;39997;-78
2021/08/25 08:05:48;;;;;;;1.17;1.07;;;;;;;27.23;42.32;99585.63;5092512;28;40997;-81
2021/08/25 08:08:17;;;;;;;1.60;1.50;;;;;;;27.49;40.93;99598.78;5123687;27;42358;-79
2021/08/25 08:10:45;;;;;;;2.10;1.30;;;;;;;27.01;41.18;99589.22;5094245;27;42530;-84
2021/08/25 08:13:12;;;;;;;1.00;0.90;;;;;;;26.62;43.35;99584.75;5121183;27;39841;-79
2021/08/25 08:15:40;;;;;;;1.10;1.00;;;;;;;26.33;44.20;99573.75;5109309;27;41269;-80
2021/08/25 08:18:12;;;;;;;1.53;1.23;;;;;;;26.33;44.52;99562.88;5090388;28;43134;-81
2021/08/25 08:20:40;;;;;;;1.43;1.13;;;;;;;26.50;43.26;99579.91;5108388;28;43041;-83
2021/08/25 08:23:09;;;;;;;1.50;1.10;;;;;;;26.57;41.93;99592.59;5109146;28;39894;-79
2021/08/25 08:25:36;;;;;;;1.20;1.10;;;;;;;26.55;41.04;99581.06;5108560;28;41630;-86
2021/08/25 08:28:04;;;;;;;1.30;1.20;;;;;;;26.87;41.48;99560.94;5099177;27;41687;-86
2021/08/25 08:30:32;;;;;;;1.90;1.57;;;;;;;27.35;40.84;99556.94;5115819;27;41186;-79
2021/08/25 08:33:00;;;;;;;3.50;1.43;;;;;;;28.05;40.69;99572.81;5115408;27;40919;-80
2021/08/25 08:35:28;;;;;;;1.67;1.47;;;;;;;28.80;38.29;99596.13;5131626;27;42367;-78
2021/08/25 08:37:59;;;;;;;1.50;1.40;;;;;;;29.47;37.32;99574.66;5115709;27;41873;-85
2021/08/25 08:40:28;;;;;;;2.63;1.77;;;;;;;30.11;34.40;99577.13;5124491;27;42445;-81
2021/08/25 08:42:56;;;;;;;1.70;1.50;;;;;;;30.48;33.81;99607.75;5083708;27;38941;-82
2021/08/25 08:45:25;;;;;;;1.60;1.43;;;;;;;30.77;34.27;99592.94;5132962;27;42809;-82
2021/08/25 08:47:54;;;;;;;1.23;1.13;;;;;;;31.56;34.02;99598.41;5132858;27;42917;-82
2021/08/25 08:50:22;;;;;;;1.67;1.57;;;;;;;31.63;32.16;99613.78;5108167;28;41165;-84
2021/08/25 08:52:49;;;;;;;1.30;1.10;;;;;;;31.89;33.25;99599.22;5111897;27;39260;-84
2021/08/25 08:55:17;;;;;;;2.30;2.00;;;;;;;32.32;33.32;99599.50;5094519;28;41967;-78
2021/08/25 08:57:46;;;;;;;1.77;1.67;;;;;;;32.91;30.51;99614.78;5123792;27;43861;-84
2021/08/25 09:00:15;;;;;;;1.40;1.30;;;;;;;32.69;31.28;99607.94;5119632;27;43306;-82
2021/08/25 09:02:45;;;;;;;1.57;1.43;;;;;;;32.25;31.76;99604.19;5131575;27;38989;-83
2021/08/25 09:05:22;;;;;;;1.33;1.23;;;;;;;31.56;30.90;99592.94;5108647;28;40770;-83
2021/08/25 09:07:51;;;;;;;1.63;1.53;;;;;;;31.00;33.28;99580.53;5123331;27;43603;-79
2021/08/25 09:10:23;;;;;;;1.63;1.47;;;;;;;30.51;32.78;99582.75;5115651;27;41266;-79
2021/08/25 09:12:54;;;;;;;1.87;1.77;;;;;;;30.20;32.65;99577.78;5128072;27;40825;-87
2021/08/25 09:15:24;;;;;;;1.83;1.50;;;;;;;30.00;32.72;99588.66;5110260;27;40929;-84
2021/08/25 09:17:57;;;;;;;3.30;2.10;;;;;;;29.53;34.17;99562.97;5093057;28;42553;-78
2021/08/25 09:20:27;;;;;;;1.90;1.10;;;;;;;29.46;35.12;99553.88;5112735;28;42668;-79
2021/08/25 09:23:10;;;;;;;1.50;1.40;;;;;;;29.49;35.25;99539.84;5097326;27;41141;-77
2021/08/25 09:25:39;;;;;;;2.33;1.40;;;;;;;29.53;34.32;99553.94;5129577;27;42156;-76
2021/08/25 09:28:12;;;;;;;1.30;1.20;;;;;;;29.49;34.02;99556.22;5131905;27;43830;-84
2021/08/25 09:30:53;;;;;;;1.60;1.40;;;;;;;29.37;34.81;99555.03;5110445;27;41391;-86
2021/08/25 09:33:23;;;;;;;1.23;1.13;;;;;;;29.47;34.09;99551.97;5133744;27;40831;-80
2021/08/25 09:35:52;;;;;;;1.80;1.30;;;;;;;30.03;33.68;99558.22;5119816;27;41762;-82
2021/08/25 09:38:20;;;;;;;1.63;1.53;;;;;;;30.58;31.03;99572.69;5108855;27;42872;-81
2021/08/25 09:40:49;;;;;;;1.33;1.20;;;;;;;30.50;31.58;99546.34;5122785;27;42143;-87
2021/08/25 09:43:33;;;;;;;2.10;1.43;;;;;;;30.32;30.80;99577.00;5106365;28;38869;-88
2021/08/25 09:46:15;;;;;;;2.07;1.80;;;;;;;29.97;32.28;99559.00;5094341;28;41347;-82
2021/08/25 09:48:45;;;;;;;1.50;1.17;;;;;;;29.65;31.97;99544.97;5111912;27;42900;-83
2021/08/25 09:51:14;;;;;;;1.93;1.50;;;;;;;29.67;32.10;99553.78;5111903;27;42236;-85
2021/08/25 09:53:43;;;;;;;1.30;1.20;;;;;;;29.29;32.94;99555.22;5104758;28;39141;-79
2021/08/25 09:56:34;;;;;;;1.63;1.53;;;;;;;28.42;33.56;99503.69;5109087;28;42308;-91
2021/08/25 09:59:05;;;;;;;2.27;1.27;;;;;;;28.76;35.05;99541.09;5100931;27;41931;-87
2021/08/25 10:01:33;;;;;;;1.60;1.23;;;;;;;28.74;33.48;99556.81;5129389;27;41331;-84
2021/08/25 10:04:06;;;;;;;1.50;1.33;;;;;;;28.43;33.47;99569.94;5112938;27;39299;-83
2021/08/25 10:06:37;;;;;;;2.07;1.37;;;;;;;28.01;34.82;99536.09;5080734;28;41165;-83
2021/08/25 10:09:06;;;;;;;3.13;2.10;;;;;;;27.75;33.56;99549.38;5110972;28;41763;-84
2021/08/25 10:11:37;;;;;;;2.07;1.40;;;;;;;27.44;35.68;99515.03;5110412;28;42146;-81
2021/08/25 10:14:09;;;;;;;1.53;1.13;;;;;;;27.59;35.37;99533.22;5092104;28;40029;-81
2021/08/25 10:16:43;;;;;;;1.37;1.10;;;;;;;28.14;34.64;99527.22;5109415;28;42139;-87
2021/08/25 10:19:29;;;;;;;1.67;1.20;;;;;;;28.64;33.18;99523.59;5093500;28;43265;-86
2021/08/25 10:21:58;;;;;;;2.30;1.80;;;;;;;28.78;33.71;99517.25;5093146;28;41562;-87
2021/08/25 10:24:26;;;;;;;1.47;1.10;;;;;;;28.89;33.26;99516.72;5094154;28;40403;-80
2021/08/25 10:27:10;;;;;;;1.80;1.33;;;;;;;29.07;32.47;99529.00;5093827;28;41949;-83
2021/08/25 10:30:05;;;;;;;2.07;1.10;;;;;;;29.09;32.63;99522.31;5110121;28;42077;-85
2021/08/25 10:32:34;;;;;;;1.67;1.17;;;;;;;29.24;32.91;99503.94;5110183;28;43026;-84
2021/08/25 10:35:23;;;;;;;2.07;1.43;;;;;;;29.65;31.90;99517.66;5092930;28;40232;-82
2021/08/25 10:37:53;;;;;;;2.00;1.60;;;;;;;29.65;31.25;99516.81;5090164;28;41898;-79
2021/08/25 10:40:33;;;;;;;1.40;1.30;;;;;;;31.07;29.95;99518.44;5109889;28;43027;-85
2021/08/25 10:43:03;;;;;;;1.67;1.40;;;;;;;32.12;27.90;99528.31;5093876;27;41584;-87
2021/08/25 10:45:57;;;;;;;1.60;1.50;;;;;;;32.97;28.11;99528.84;5113252;27;39274;-87
2021/08/25 10:48:55;;;;;;;1.20;1.10;;;;;;;33.86;26.00;99525.63;5106040;27;40660;-86
2021/08/25 10:52:04;;;;;;;1.57;1.47;;;;;;;34.16;25.49;99516.56;5058273;28;42011;-87
2021/08/25 10:54:33;;;;;;;1.40;1.00;;;;;;;34.19;24.61;99514.19;5074276;28;41551;-89
2021/08/25 10:57:10;;;;;;;1.30;1.20;;;;;;;34.50;24.78;99515.88;5075736;28;40996;-91
2021/08/25 10:59:39;;;;;;;1.70;1.23;;;;;;;34.39;24.65;99467.16;5075036;28;41293;-91
2021/08/25 11:02:08;;;;;;;1.67;1.40;;;;;;;35.00;24.29;99503.66;5073465;28;41947;-91
2021/08/25 11:04:36;;;;;;;2.30;1.73;;;;;;;35.45;24.14;99484.66;5074809;28;42457;-90
2021/08/25 11:07:06;;;;;;;1.93;1.20;;;;;;;36.17;23.95;99494.16;5074792;28;39819;-85
2021/08/25 11:09:35;;;;;;;2.47;1.70;;;;;;;35.98;22.04;99503.69;5074779;28;42084;-88
2021/08/25 11:12:07;;;;;;;1.50;1.40;;;;;;;35.38;22.72;99494.94;5075910;28;41766;-88
2021/08/25 11:14:39;;;;;;;1.93;1.70;;;;;;;34.85;23.57;99473.88;5110582;28;43638;-92
2021/08/25 11:17:12;;;;;;;2.10;1.53;;;;;;;33.90;24.39;99484.75;5090082;28;38907;-80
2021/08/25 11:19:42;;;;;;;1.73;1.40;;;;;;;33.59;25.43;99432.75;5112702;27;41947;-79
2021/08/25 11:22:17;;;;;;;1.47;1.37;;;;;;;34.24;25.25;99464.00;5112636;27;41788;-87
2021/08/25 11:24:47;;;;;;;1.90;1.63;;;;;;;34.56;24.04;99470.09;5128783;27;43200;-85
2021/08/25 11:27:24;;;;;;;1.40;1.30;;;;;;;34.31;23.81;99478.50;5110976;28;40276;-86
2021/08/25 11:30:14;;;;;;;2.70;1.43;;;;;;;34.05;23.76;99451.38;5092418;28;41896;-87
2021/08/25 11:32:51;;;;;;;1.83;1.73;;;;;;;34.10;24.81;99465.28;5092815;28;42804;-86
2021/08/25 11:35:25;;;;;;;1.90;1.50;;;;;;;34.39;23.93;99464.41;5092967;28;41242;-82
2021/08/25 11:37:56;;;;;;;1.67;1.37;;;;;;;35.28;22.85;99463.34;5095378;28;20641;-82
2021/08/25 11:40:24;;;;;;;1.37;1.27;;;;;;;34.67;23.39;99460.16;5094642;28;40996;-90
2021/08/25 11:42:53;;;;;;;1.83;1.57;;;;;;;33.82;23.41;99458.44;5092764;28;42217;-84
2021/08/25 11:45:22;;;;;;;1.37;1.27;;;;;;;34.28;23.64;99462.47;5091755;28;41481;-88